Time;durP1;ratioP1;P1;durP2;ratioP2;P2;SDS_P1;SDS_P2;PMS_P1;PMS_P2;Temp;Humidity;BMP_temperature;BMP_pressure;BME280_temperature;BME280_humidity;BME280_pressure;Samples;Min_cycle;Max_cycle;Signal;HPM_P1;HPM_P2
2021/05/25 00:00:13;;;;;;;5.85;2.35;;;;;;;19.68;100.00;101682.34;4920492;29;20036;-73
2021/05/25 00:03:01;;;;;;;4.10;2.10;;;;;;;19.52;100.00;101673.22;4907994;29;20032;-75
2021/05/25 00:05:47;;;;;;;4.03;2.10;;;;;;;19.55;100.00;101668.66;4920304;29;20047;-74
2021/05/25 00:08:32;;;;;;;3.45;2.20;;;;;;;19.83;100.00;101666.63;4920103;29;20131;-74
2021/05/25 00:11:18;;;;;;;4.45;2.25;;;;;;;19.40;100.00;101668.38;4920303;29;20060;-75
2021/05/25 00:14:04;;;;;;;4.18;2.20;;;;;;;19.61;100.00;101656.91;4920239;29;20111;-74
2021/05/25 00:16:51;;;;;;;5.03;2.47;;;;;;;19.58;100.00;101663.22;4920210;29;20119;-75
2021/05/25 00:19:37;;;;;;;2.15;1.95;;;;;;;19.59;100.00;101664.06;4920450;29;20028;-75
2021/05/25 00:22:23;;;;;;;4.15;2.17;;;;;;;19.32;100.00;101657.19;4907686;29;20476;-75
2021/05/25 00:25:11;;;;;;;3.33;2.15;;;;;;;19.25;100.00;101651.19;4920112;29;20044;-75
2021/05/25 00:27:57;;;;;;;3.80;2.33;;;;;;;19.41;100.00;101648.84;4920179;29;20032;-74
2021/05/25 00:30:43;;;;;;;3.67;2.10;;;;;;;19.46;100.00;101653.06;4919957;29;20067;-74
2021/05/25 00:33:29;;;;;;;9.93;2.08;;;;;;;19.43;100.00;101646.97;4919501;29;20028;-74
2021/05/25 00:36:15;;;;;;;5.32;2.17;;;;;;;19.30;100.00;101635.97;4919706;29;20020;-74
2021/05/25 00:39:04;;;;;;;4.40;2.33;;;;;;;19.19;100.00;101633.69;4907408;29;20024;-74
2021/05/25 00:41:50;;;;;;;4.07;2.45;;;;;;;19.22;100.00;101627.41;4920876;29;20043;-75
2021/05/25 00:44:36;;;;;;;4.13;2.58;;;;;;;19.09;100.00;101627.00;4919909;29;20054;-75
2021/05/25 00:47:33;;;;;;;5.20;2.40;;;;;;;18.89;100.00;101628.69;4906574;29;20028;-74
2021/05/25 00:50:26;;;;;;;11.52;2.33;;;;;;;19.34;100.00;101628.75;4906647;29;20024;-75
2021/05/25 00:53:12;;;;;;;4.55;2.58;;;;;;;19.21;100.00;101631.84;4919696;29;20060;-75
2021/05/25 00:55:58;;;;;;;5.35;2.58;;;;;;;19.38;100.00;101617.06;4919967;29;20058;-74
2021/05/25 00:58:43;;;;;;;4.40;2.50;;;;;;;19.46;100.00;101615.84;4906562;29;20039;-74
2021/05/25 01:01:29;;;;;;;6.65;2.55;;;;;;;19.07;100.00;101612.03;4906826;29;20067;-74
2021/05/25 01:04:15;;;;;;;2.97;2.50;;;;;;;19.30;100.00;101614.72;4919650;29;20114;-74
2021/05/25 01:07:01;;;;;;;3.88;2.45;;;;;;;19.33;100.00;101603.94;4918886;29;20386;-74
2021/05/25 01:09:46;;;;;;;5.10;2.58;;;;;;;19.40;100.00;101610.75;4919287;29;20032;-73
2021/05/25 01:12:34;;;;;;;4.60;2.58;;;;;;;18.84;100.00;101602.28;4918882;29;20119;-74
2021/05/25 01:15:21;;;;;;;2.70;2.50;;;;;;;18.95;100.00;101594.78;4906846;29;20496;-75
2021/05/25 01:18:07;;;;;;;2.70;2.50;;;;;;;18.98;100.00;101607.06;4919536;29;20092;-75
2021/05/25 01:20:53;;;;;;;3.03;2.70;;;;;;;18.79;100.00;101600.72;4919124;29;20454;-74
2021/05/25 01:23:40;;;;;;;3.45;2.60;;;;;;;19.08;100.00;101600.47;4919022;29;20119;-74
2021/05/25 01:26:27;;;;;;;4.00;2.65;;;;;;;18.92;100.00;101597.56;4919298;29;20028;-74
2021/05/25 01:29:13;;;;;;;3.40;2.45;;;;;;;19.26;100.00;101586.53;4918884;29;20036;-74
2021/05/25 01:31:59;;;;;;;4.25;2.33;;;;;;;19.07;100.00;101591.66;4919146;29;20046;-74
2021/05/25 02:12:46;;;;;;;4.20;3.17;;;;;;;17.61;100.00;101576.59;5071629;23;20056;-74
2021/05/25 02:15:33;;;;;;;7.05;3.10;;;;;;;17.96;100.00;101569.19;4918406;29;20055;-75
2021/05/25 02:18:22;;;;;;;4.72;3.15;;;;;;;18.13;100.00;101571.28;4917870;29;20032;-74
2021/05/25 02:21:09;;;;;;;4.63;3.00;;;;;;;18.26;100.00;101569.91;4905753;29;20126;-74
2021/05/25 02:23:54;;;;;;;4.75;3.08;;;;;;;18.20;100.00;101575.41;4918082;29;20032;-75
2021/05/25 02:26:40;;;;;;;3.78;3.30;;;;;;;18.14;100.00;101567.69;4918024;29;20501;-74
2021/05/25 02:29:26;;;;;;;6.00;3.13;;;;;;;17.70;100.00;101565.69;4905398;29;20039;-75
2021/05/25 02:32:12;;;;;;;3.97;3.58;;;;;;;17.58;100.00;101568.72;4918144;29;20091;-75
2021/05/25 02:34:57;;;;;;;7.78;3.13;;;;;;;18.04;100.00;101576.88;4918306;29;20036;-75
2021/05/25 02:37:43;;;;;;;5.75;3.45;;;;;;;17.62;100.00;101579.19;4905586;29;20504;-74
2021/05/25 02:40:30;;;;;;;5.40;3.80;;;;;;;17.30;100.00;101586.38;4917796;29;20063;-75
2021/05/25 02:43:19;;;;;;;5.18;3.70;;;;;;;17.32;100.00;101577.47;4917633;29;20020;-75
2021/05/25 02:46:04;;;;;;;3.67;3.28;;;;;;;17.32;100.00;101577.47;4917886;29;20035;-75
2021/05/25 02:48:51;;;;;;;5.22;3.33;;;;;;;17.45;100.00;101576.19;4917645;29;20063;-75
2021/05/25 02:51:37;;;;;;;7.45;3.45;;;;;;;17.85;100.00;101578.44;4918391;29;20036;-75
2021/05/25 02:54:22;;;;;;;3.75;3.00;;;;;;;17.68;100.00;101578.97;4917734;29;20473;-75
2021/05/25 02:57:08;;;;;;;4.38;3.45;;;;;;;17.34;100.00;101578.31;4904889;29;20096;-75
2021/05/25 02:59:54;;;;;;;7.05;3.70;;;;;;;17.09;100.00;101602.94;4904851;29;20028;-75
2021/05/25 03:02:40;;;;;;;5.28;3.50;;;;;;;16.91;100.00;101598.19;4905125;29;20036;-75
2021/05/25 03:05:27;;;;;;;6.95;3.70;;;;;;;17.06;100.00;101608.31;4917432;29;20081;-75
2021/05/25 03:08:14;;;;;;;3.97;3.08;;;;;;;17.18;100.00;101606.19;4918324;29;20041;-75
2021/05/25 03:11:00;;;;;;;5.22;3.40;;;;;;;17.44;100.00;101605.41;4904425;29;20091;-75
2021/05/25 03:13:47;;;;;;;5.90;3.53;;;;;;;16.90;100.00;101607.03;4917460;29;20043;-75
2021/05/25 03:16:32;;;;;;;6.30;3.88;;;;;;;16.90;100.00;101599.97;4917718;29;20032;-75
2021/05/25 03:19:18;;;;;;;4.50;3.50;;;;;;;17.16;100.00;101607.16;4904657;29;20106;-74
2021/05/25 03:22:04;;;;;;;5.70;3.40;;;;;;;17.66;100.00;101606.47;4917591;29;20038;-75
2021/05/25 03:24:50;;;;;;;4.43;3.72;;;;;;;17.22;100.00;101618.44;4917160;29;20028;-75
2021/05/25 03:27:36;;;;;;;5.68;3.70;;;;;;;16.73;100.00;101619.91;4918043;29;20024;-74
2021/05/25 03:30:24;;;;;;;4.82;3.47;;;;;;;16.89;100.00;101630.03;4916904;29;20035;-75
2021/05/25 03:33:10;;;;;;;7.63;3.90;;;;;;;17.09;100.00;101618.84;4920567;29;20111;-75
2021/05/25 03:35:56;;;;;;;4.88;3.78;;;;;;;17.05;100.00;101614.53;4920936;29;20107;-75
2021/05/25 03:38:42;;;;;;;5.35;3.83;;;;;;;17.21;100.00;101618.47;4908094;29;20040;-75
2021/05/25 03:41:28;;;;;;;6.10;4.03;;;;;;;17.22;100.00;101617.53;4920188;29;20028;-75
2021/05/25 03:44:14;;;;;;;5.32;4.10;;;;;;;17.08;100.00;101619.75;4908291;29;20048;-75
2021/05/25 03:46:59;;;;;;;6.43;4.47;;;;;;;17.26;100.00;101617.41;4920641;29;20114;-74
2021/05/25 03:49:46;;;;;;;7.28;4.13;;;;;;;17.46;100.00;101612.41;4920382;29;20032;-75
2021/05/25 03:52:40;;;;;;;7.18;4.05;;;;;;;17.57;100.00;101610.25;4908367;29;20462;-73
2021/05/25 04:01:27;;;;;;;7.85;4.20;;;;;;;17.18;100.00;101618.56;4920435;29;20060;-74
2021/05/25 04:04:12;;;;;;;5.68;3.92;;;;;;;17.15;100.00;101621.28;4920409;29;20028;-74
2021/05/25 04:06:58;;;;;;;6.93;4.20;;;;;;;17.58;100.00;101614.66;4920554;29;20028;-74
2021/05/25 04:09:44;;;;;;;6.75;4.50;;;;;;;17.80;100.00;101613.03;4920260;29;20036;-74
2021/05/25 04:12:30;;;;;;;6.95;4.55;;;;;;;17.51;100.00;101618.41;4919919;29;20438;-74
2021/05/25 04:15:15;;;;;;;8.38;4.20;;;;;;;18.03;100.00;101610.50;4920475;29;20029;-75
2021/05/25 04:18:02;;;;;;;6.93;4.25;;;;;;;18.56;100.00;101598.03;4920271;29;20039;-75
2021/05/25 04:20:47;;;;;;;4.85;4.07;;;;;;;18.57;100.00;101594.47;4920293;29;20032;-75
2021/05/25 04:23:33;;;;;;;7.50;4.10;;;;;;;18.13;100.00;101597.78;4920144;29;20043;-75
2021/05/25 04:26:19;;;;;;;4.35;3.53;;;;;;;18.32;100.00;101590.91;4920175;29;20469;-75
2021/05/25 04:29:05;;;;;;;7.68;3.92;;;;;;;18.70;100.00;101595.75;4920656;29;20040;-75
2021/05/25 04:31:51;;;;;;;6.28;3.92;;;;;;;18.49;100.00;101601.84;4907568;29;20020;-74
2021/05/25 04:34:36;;;;;;;7.30;4.00;;;;;;;19.03;100.00;101594.47;4920138;29;20027;-74
2021/05/25 04:37:22;;;;;;;5.97;3.78;;;;;;;19.25;100.00;101590.09;4920046;29;20368;-75
2021/05/25 04:40:09;;;;;;;8.13;4.00;;;;;;;19.32;100.00;101596.06;4907060;29;20063;-74
2021/05/25 04:42:55;;;;;;;6.45;4.03;;;;;;;18.93;100.00;101595.78;4905463;29;20369;-75
2021/05/25 04:45:42;;;;;;;8.57;4.25;;;;;;;19.08;100.00;101597.81;4919953;29;20370;-74
2021/05/25 04:48:28;;;;;;;5.13;3.35;;;;;;;19.10;100.00;101598.63;4919657;29;20111;-75
2021/05/25 04:51:14;;;;;;;6.65;3.90;;;;;;;19.05;100.00;101600.63;4907138;29;20039;-75
2021/05/25 04:53:59;;;;;;;5.78;3.95;;;;;;;18.99;100.00;101604.38;4919348;29;20536;-75
2021/05/25 04:56:45;;;;;;;5.13;3.70;;;;;;;18.79;100.00;101604.25;4907308;29;20036;-74
2021/05/25 04:59:31;;;;;;;6.00;3.75;;;;;;;18.93;100.00;101606.41;4906754;29;20105;-74
2021/05/25 05:02:17;;;;;;;4.90;3.80;;;;;;;19.18;100.00;101620.47;4919756;29;20132;-75
2021/05/25 05:05:04;;;;;;;7.85;3.60;;;;;;;19.42;100.00;101630.19;4919108;29;20123;-75
2021/05/25 05:07:50;;;;;;;4.47;3.10;;;;;;;19.51;100.00;101640.44;4907515;29;20036;-75
2021/05/25 05:10:37;;;;;;;4.60;3.40;;;;;;;19.45;100.00;101661.94;4919849;29;20063;-75
2021/05/25 05:13:23;;;;;;;19.70;10.48;;;;;;;20.10;100.00;101678.84;4919035;29;20048;-74
2021/05/25 05:16:11;;;;;;;5.28;3.50;;;;;;;20.38;100.00;101690.06;4908814;29;20051;-74
2021/05/25 05:18:57;;;;;;;5.88;2.60;;;;;;;20.30;100.00;101705.50;4922970;29;20036;-74
2021/05/25 05:21:43;;;;;;;5.38;3.00;;;;;;;20.39;100.00;101714.88;4937942;29;20024;-73
2021/05/25 05:24:28;;;;;;;3.63;2.63;;;;;;;20.67;100.00;101712.75;4937416;29;20080;-74
2021/05/25 05:27:15;;;;;;;9.00;3.08;;;;;;;20.75;100.00;101719.50;4931873;29;20028;-73
2021/05/25 05:30:02;;;;;;;6.40;3.10;;;;;;;20.79;100.00;101720.22;4929392;29;20131;-75
2021/05/25 05:32:48;;;;;;;3.78;2.90;;;;;;;20.90;100.00;101721.47;4917888;29;20028;-75
2021/05/25 05:35:33;;;;;;;7.97;3.10;;;;;;;20.45;100.00;101707.47;4929266;29;20091;-75
2021/05/25 05:38:20;;;;;;;3.55;2.97;;;;;;;20.21;100.00;101711.16;4912843;29;20099;-75
2021/05/25 05:41:07;;;;;;;4.15;3.28;;;;;;;19.99;100.00;101699.66;4908965;29;20031;-75
2021/05/25 05:43:53;;;;;;;4.35;2.65;;;;;;;19.69;100.00;101700.00;4920322;29;20028;-75
2021/05/25 05:46:40;;;;;;;3.45;2.65;;;;;;;19.67;100.00;101688.56;4921030;29;20032;-74
2021/05/25 05:49:26;;;;;;;3.95;2.80;;;;;;;20.16;100.00;101683.00;4919020;29;20477;-75
2021/05/25 05:52:12;;;;;;;5.55;3.00;;;;;;;20.53;100.00;101672.56;4918554;29;20032;-75
2021/05/25 05:54:57;;;;;;;4.72;3.10;;;;;;;20.97;100.00;101663.50;4917967;29;20441;-74
2021/05/25 05:57:43;;;;;;;6.28;2.85;;;;;;;20.89;100.00;101654.97;4918625;29;20020;-75
2021/05/25 06:00:29;;;;;;;6.85;2.65;;;;;;;20.77;100.00;101655.50;4918337;29;20036;-75
2021/05/25 06:03:15;;;;;;;3.72;2.80;;;;;;;21.14;100.00;101644.94;4919026;29;20028;-75
2021/05/25 06:06:00;;;;;;;7.38;2.50;;;;;;;21.31;100.00;101648.56;4918116;29;20039;-76
2021/05/25 06:08:46;;;;;;;5.13;2.47;;;;;;;21.11;100.00;101640.63;4905144;29;20028;-73
2021/05/25 06:11:32;;;;;;;5.80;2.40;;;;;;;21.31;100.00;101658.34;4917897;29;20143;-74
2021/05/25 06:14:18;;;;;;;6.43;2.78;;;;;;;21.31;100.00;101664.56;4918385;29;20118;-74
2021/05/25 06:17:04;;;;;;;4.60;2.63;;;;;;;21.53;100.00;101683.06;4917307;29;20035;-74
2021/05/25 06:19:50;;;;;;;6.57;2.60;;;;;;;22.13;100.00;101689.00;4918602;29;20024;-75
2021/05/25 06:22:36;;;;;;;9.43;2.17;;;;;;;21.75;100.00;101698.03;4917984;29;20050;-75
2021/05/25 06:25:22;;;;;;;3.85;2.22;;;;;;;22.68;100.00;101700.44;4917988;29;20107;-74
2021/05/25 06:28:08;;;;;;;5.15;2.38;;;;;;;23.05;100.00;101703.78;4918105;29;20040;-75
2021/05/25 06:30:54;;;;;;;7.47;2.17;;;;;;;23.46;100.00;101696.22;4917933;29;20035;-74
2021/05/25 06:33:41;;;;;;;2.75;2.00;;;;;;;23.22;100.00;101714.47;4905090;29;20032;-76
2021/05/25 06:36:27;;;;;;;5.57;2.20;;;;;;;23.54;100.00;101706.53;4918161;29;20055;-74
2021/05/25 06:39:13;;;;;;;4.55;2.13;;;;;;;23.59;100.00;101702.66;4918255;29;20036;-73
2021/05/25 06:41:58;;;;;;;3.28;2.10;;;;;;;23.78;100.00;101683.75;4919758;29;20027;-74
2021/05/25 06:44:44;;;;;;;5.45;2.00;;;;;;;22.84;100.00;101683.56;4918692;29;20468;-75
2021/05/25 06:47:30;;;;;;;2.53;1.80;;;;;;;23.09;100.00;101696.47;4905012;29;20024;-76
2021/05/25 06:50:16;;;;;;;5.90;2.25;;;;;;;23.85;100.00;101699.34;4918332;29;20110;-75
2021/05/25 06:53:02;;;;;;;7.07;2.20;;;;;;;24.11;100.00;101708.59;4918429;29;20407;-74
2021/05/25 06:55:48;;;;;;;6.60;2.35;;;;;;;23.35;100.00;101683.44;4918969;29;20032;-74
2021/05/25 06:58:34;;;;;;;5.25;2.00;;;;;;;24.12;100.00;101686.22;4918228;29;20035;-73
2021/05/25 07:01:20;;;;;;;4.40;1.90;;;;;;;22.75;100.00;101688.50;4918514;29;20028;-73
2021/05/25 07:04:06;;;;;;;6.13;2.50;;;;;;;22.67;100.00;101670.19;4916911;29;20032;-73
2021/05/25 07:06:51;;;;;;;4.57;2.60;;;;;;;22.73;100.00;101666.34;4907195;29;20035;-72
2021/05/25 07:09:37;;;;;;;5.07;2.50;;;;;;;22.98;100.00;101653.38;4908207;29;20051;-71
2021/05/25 07:12:23;;;;;;;4.25;2.05;;;;;;;23.36;100.00;101647.72;4908419;29;20449;-72
2021/05/25 07:15:09;;;;;;;3.53;2.10;;;;;;;23.31;100.00;101644.44;4908742;29;20025;-72
2021/05/25 07:17:58;;;;;;;5.78;2.30;;;;;;;23.25;100.00;101644.78;4921081;29;20113;-72
2021/05/25 07:20:44;;;;;;;5.28;2.00;;;;;;;23.42;100.00;101639.34;4921681;29;20032;-71
2021/05/25 07:23:30;;;;;;;4.03;2.08;;;;;;;23.72;100.00;101633.22;4920994;29;20032;-74
2021/05/25 07:26:16;;;;;;;6.30;1.95;;;;;;;24.27;100.00;101637.97;4922075;29;20024;-74
2021/05/25 07:29:03;;;;;;;8.07;2.28;;;;;;;23.98;100.00;101625.44;4908587;29;20060;-73
2021/05/25 07:31:50;;;;;;;3.97;2.00;;;;;;;24.70;100.00;101615.69;4909257;29;20115;-73
2021/05/25 07:34:35;;;;;;;4.43;2.10;;;;;;;24.78;100.00;101609.84;4921479;29;20098;-74
2021/05/25 07:37:21;;;;;;;6.88;2.45;;;;;;;25.25;100.00;101615.78;4920224;29;20067;-75
2021/05/25 07:40:24;;;;;;;4.05;1.70;;;;;;;25.43;100.00;101615.50;4921761;29;20056;-77
2021/05/25 07:43:17;;;;;;;5.78;1.55;;;;;;;25.91;97.56;101616.75;4920622;29;20028;-74
2021/05/25 07:46:03;;;;;;;2.95;1.67;;;;;;;26.11;93.32;101610.94;4920496;29;20032;-74
2021/05/25 07:48:49;;;;;;;2.50;1.75;;;;;;;26.16;90.35;101607.00;4907067;29;20469;-75
2021/05/25 07:51:35;;;;;;;3.20;1.45;;;;;;;26.04;90.07;101604.28;4907940;29;20032;-75
2021/05/25 07:54:20;;;;;;;4.90;1.60;;;;;;;26.18;90.05;101609.56;4920413;29;20035;-74
2021/05/25 07:57:06;;;;;;;3.70;1.80;;;;;;;27.10;87.56;101604.81;4920978;29;20032;-74
2021/05/25 07:59:52;;;;;;;10.43;1.60;;;;;;;26.41;87.31;101614.25;4920636;29;20032;-73
2021/05/25 08:02:42;;;;;;;3.90;1.58;;;;;;;26.78;89.20;101617.00;4920904;29;20028;-74
2021/05/25 08:05:29;;;;;;;3.28;1.58;;;;;;;27.61;83.60;101621.72;4919628;29;20477;-75
2021/05/25 08:08:15;;;;;;;4.00;1.48;;;;;;;28.23;81.81;101635.88;4920456;29;20037;-74
2021/05/25 08:11:00;;;;;;;3.83;1.40;;;;;;;28.75;78.12;101642.56;4907007;29;20028;-74
2021/05/25 08:13:47;;;;;;;6.32;1.52;;;;;;;28.59;76.19;101644.72;4908297;29;20032;-73
2021/05/25 08:16:34;;;;;;;3.08;1.63;;;;;;;28.00;76.17;101645.69;4907796;29;20107;-74
2021/05/25 08:19:28;;;;;;;7.22;1.48;;;;;;;27.76;79.61;101642.09;4920437;29;20191;-73
2021/05/25 08:22:14;;;;;;;2.20;1.40;;;;;;;27.42;81.46;101638.38;4907223;29;20028;-74
2021/05/25 08:25:00;;;;;;;2.65;1.27;;;;;;;27.48;80.10;101640.59;4920376;29;20033;-74
2021/05/25 08:27:47;;;;;;;6.40;1.70;;;;;;;27.52;80.03;101629.59;4920114;29;20032;-72
2021/05/25 08:30:38;;;;;;;4.75;1.98;;;;;;;27.68;81.50;101630.19;4920119;29;20043;-72
2021/05/25 08:33:24;;;;;;;7.25;2.45;;;;;;;27.31;83.02;101632.03;4919964;29;20117;-72
2021/05/25 08:36:10;;;;;;;6.93;2.00;;;;;;;27.62;79.34;101633.31;4919854;29;20032;-72
2021/05/25 08:38:56;;;;;;;6.93;2.03;;;;;;;26.96;83.79;101636.34;4920331;29;20042;-72
2021/05/25 08:41:42;;;;;;;2.67;1.40;;;;;;;26.61;85.70;101632.59;4919780;29;20042;-72
2021/05/25 08:44:29;;;;;;;4.82;1.85;;;;;;;26.84;86.54;101632.69;4920223;29;20046;-72
2021/05/25 08:47:16;;;;;;;1.77;1.45;;;;;;;26.56;88.85;101638.22;4906109;29;20418;-72
2021/05/25 08:50:07;;;;;;;7.97;2.03;;;;;;;27.15;85.78;101647.50;4919950;29;20043;-72
2021/05/25 08:52:56;;;;;;;6.10;2.20;;;;;;;26.89;85.87;101652.03;4906265;29;20044;-72
2021/05/25 08:55:46;;;;;;;3.28;1.83;;;;;;;26.65;89.08;101650.22;4906994;29;20020;-73
2021/05/25 08:58:32;;;;;;;3.75;2.25;;;;;;;26.57;88.73;101657.94;4919925;29;20369;-72
2021/05/25 09:01:18;;;;;;;7.57;2.83;;;;;;;26.67;87.98;101664.41;4919505;29;20058;-72
2021/05/25 09:04:07;;;;;;;2.33;1.90;;;;;;;27.13;86.85;101668.31;4919979;29;20127;-72
2021/05/25 09:06:52;;;;;;;3.45;1.98;;;;;;;26.64;88.15;101667.34;4919290;29;20065;-73
2021/05/25 09:09:53;;;;;;;5.10;1.90;;;;;;;27.16;87.79;101671.63;4919388;29;20032;-72
2021/05/25 09:12:41;;;;;;;3.72;1.73;;;;;;;27.20;86.60;101675.84;4906166;29;20188;-73
2021/05/25 09:15:38;;;;;;;5.47;2.00;;;;;;;27.39;86.39;101672.69;4919021;29;20025;-73
2021/05/25 09:18:29;;;;;;;4.05;1.88;;;;;;;27.77;83.45;101656.44;4919088;29;20107;-72
2021/05/25 09:21:43;;;;;;;3.10;1.60;;;;;;;26.83;88.23;101643.56;4919888;29;20035;-74
2021/05/25 09:24:42;;;;;;;4.50;2.08;;;;;;;26.93;88.50;101642.78;4920614;29;20039;-74
2021/05/25 09:27:32;;;;;;;6.05;2.38;;;;;;;27.25;86.75;101627.09;4919418;29;20038;-75
2021/05/25 09:30:21;;;;;;;6.10;1.92;;;;;;;27.14;86.61;101630.53;4918914;29;20469;-74
2021/05/25 09:33:10;;;;;;;9.20;2.50;;;;;;;27.22;87.41;101617.41;4919268;29;20175;-74
2021/05/25 09:35:56;;;;;;;6.32;2.20;;;;;;;27.36;87.05;101619.06;4919631;29;20028;-76
2021/05/25 09:38:42;;;;;;;3.00;1.90;;;;;;;27.20;87.47;101613.97;4918927;29;20111;-75
2021/05/25 09:41:27;;;;;;;2.65;1.80;;;;;;;26.32;92.21;101596.91;4918552;29;20043;-74
2021/05/25 09:44:13;;;;;;;5.03;2.00;;;;;;;26.29;95.07;101570.25;4918596;29;20039;-74
2021/05/25 09:47:01;;;;;;;6.05;1.92;;;;;;;26.35;97.34;101552.84;4918182;29;20693;-75
2021/05/25 09:49:59;;;;;;;3.45;2.00;;;;;;;26.08;99.07;101525.22;4919503;29;20473;-75
2021/05/25 09:53:05;;;;;;;6.07;2.22;;;;;;;25.69;100.00;101528.75;4918567;29;20036;-74
2021/05/25 09:55:53;;;;;;;4.28;2.35;;;;;;;25.51;100.00;101513.03;4918761;29;20024;-74
2021/05/25 09:58:39;;;;;;;5.65;2.30;;;;;;;25.33;100.00;101512.41;4917739;29;20036;-74
2021/05/25 10:01:36;;;;;;;8.20;2.38;;;;;;;25.55;100.00;101525.28;4918857;29;20059;-77
2021/05/25 10:04:23;;;;;;;7.88;2.40;;;;;;;25.80;100.00;101526.19;4918112;29;20044;-77
2021/05/25 10:07:09;;;;;;;8.20;2.20;;;;;;;25.40;100.00;101502.97;4918852;29;20042;-77
2021/05/25 10:09:56;;;;;;;6.45;2.30;;;;;;;25.51;100.00;101495.06;4918019;29;20036;-77
2021/05/25 10:12:43;;;;;;;10.20;2.70;;;;;;;25.30;100.00;101490.28;4917907;29;20059;-77
2021/05/25 10:15:30;;;;;;;4.13;2.70;;;;;;;24.96;100.00;101480.00;4918798;29;20161;-77
2021/05/25 10:21:05;;;;;;;7.72;2.92;;;;;;;25.41;100.00;101439.44;4918239;29;20028;-76
2021/05/25 10:24:18;;;;;;;3.30;2.10;;;;;;;25.81;100.00;101457.25;4906667;29;20157;-79
2021/05/25 10:27:12;;;;;;;6.57;2.00;;;;;;;25.75;100.00;101479.13;4917527;29;20111;-76
2021/05/25 10:29:58;;;;;;;4.90;2.20;;;;;;;26.26;99.92;101494.38;4917408;29;20068;-76
2021/05/25 10:32:44;;;;;;;5.25;2.10;;;;;;;26.80;96.99;101495.88;4917720;29;20382;-77
2021/05/25 10:35:51;;;;;;;4.88;1.98;;;;;;;26.62;97.25;101481.06;4905334;29;20031;-77
2021/05/25 10:38:40;;;;;;;5.68;3.58;;;;;;;27.27;93.86;101469.91;4918218;29;20054;-76
2021/05/25 10:41:31;;;;;;;5.97;2.60;;;;;;;27.52;93.67;101458.13;4917159;29;20032;-77
2021/05/25 10:44:46;;;;;;;3.35;2.15;;;;;;;27.13;92.55;101458.41;4917252;29;20028;-76
2021/05/25 10:47:38;;;;;;;4.80;2.20;;;;;;;27.80;91.44;101449.66;4917705;29;20043;-77
2021/05/25 10:50:29;;;;;;;12.70;2.72;;;;;;;28.14;90.77;101434.44;4905120;29;20040;-77
2021/05/25 10:53:26;;;;;;;8.57;2.40;;;;;;;28.65;85.51;101433.84;4917754;29;20039;-76
2021/05/25 10:56:27;;;;;;;12.23;2.20;;;;;;;29.12;85.81;101438.94;4918027;29;20054;-77
2021/05/25 10:59:14;;;;;;;8.90;2.50;;;;;;;28.54;83.96;101439.28;4916862;29;20031;-76
2021/05/25 11:02:00;;;;;;;14.77;2.97;;;;;;;27.96;88.39;101430.50;4918326;29;20461;-77
2021/05/25 11:04:46;;;;;;;6.93;2.40;;;;;;;27.99;89.40;101414.97;4917464;29;20391;-77
2021/05/25 11:07:36;;;;;;;4.60;2.38;;;;;;;27.07;92.28;101392.47;4917864;29;20036;-76
2021/05/25 11:10:28;;;;;;;5.78;2.90;;;;;;;27.45;91.72;101378.84;4904672;29;20032;-76
2021/05/25 11:13:14;;;;;;;5.88;2.58;;;;;;;27.12;94.73;101381.34;4904645;29;20438;-77
2021/05/25 11:16:25;;;;;;;7.95;2.53;;;;;;;27.39;94.16;101377.47;4917624;29;20116;-77
2021/05/25 11:19:18;;;;;;;8.85;2.65;;;;;;;27.43;97.49;101370.00;4917354;29;20032;-76
2021/05/25 11:24:53;;;;;;;13.32;3.10;;;;;;;27.66;100.00;101358.31;4917837;29;20476;-77
2021/05/25 11:27:45;;;;;;;8.48;2.80;;;;;;;27.17;100.00;101349.59;4904860;29;20458;-75
2021/05/25 11:30:31;;;;;;;5.78;2.20;;;;;;;27.41;100.00;101334.28;4904720;29;20028;-75
2021/05/25 11:33:31;;;;;;;5.57;2.60;;;;;;;27.63;100.00;101337.00;4904645;29;20059;-76
2021/05/25 11:36:17;;;;;;;9.63;2.83;;;;;;;27.58;100.00;101331.97;4917426;29;20039;-76
2021/05/25 11:39:11;;;;;;;10.10;2.80;;;;;;;27.55;100.00;101344.81;4917468;29;20123;-76
2021/05/25 11:41:57;;;;;;;6.30;2.38;;;;;;;27.39;98.57;101337.09;4904870;29;20059;-76
2021/05/25 11:44:45;;;;;;;5.70;2.30;;;;;;;27.19;98.51;101344.94;4917816;29;20452;-76
2021/05/25 11:47:30;;;;;;;13.88;9.07;;;;;;;27.32;96.70;101345.72;4905092;29;20481;-77
2021/05/25 11:50:16;;;;;;;7.80;2.10;;;;;;;27.17;98.14;101347.72;4918656;29;20043;-77
2021/05/25 11:53:05;;;;;;;6.18;2.22;;;;;;;28.09;93.61;101353.97;4911447;29;20035;-77
2021/05/25 11:55:51;;;;;;;8.57;2.50;;;;;;;29.38;88.24;101353.06;4936331;29;20020;-76
2021/05/25 11:58:37;;;;;;;5.60;2.00;;;;;;;29.52;83.76;101348.16;4939487;29;20032;-77
2021/05/25 12:01:38;;;;;;;4.03;2.20;;;;;;;29.65;84.03;101351.56;4940654;29;20036;-77
2021/05/25 12:04:30;;;;;;;8.52;2.38;;;;;;;29.48;80.34;101356.66;4909322;29;20032;-77
2021/05/25 12:07:22;;;;;;;5.90;2.50;;;;;;;29.61;79.11;101357.38;4921113;29;20024;-77
2021/05/25 12:10:11;;;;;;;9.10;6.18;;;;;;;29.92;78.37;101349.16;4930441;29;20031;-77
2021/05/25 12:13:23;;;;;;;9.20;3.67;;;;;;;30.39;76.13;101348.53;4930677;29;20063;-76
2021/05/25 12:16:13;;;;;;;3.80;2.60;;;;;;;30.49;76.26;101352.09;4930047;29;20032;-73
2021/05/25 12:18:59;;;;;;;5.72;2.15;;;;;;;30.37;74.53;101345.09;4923366;29;20454;-75
2021/05/25 12:21:45;;;;;;;9.52;5.90;;;;;;;31.13;72.45;101334.38;4922483;29;20115;-74
2021/05/25 12:24:32;;;;;;;3.45;2.92;;;;;;;31.08;72.34;101327.69;4920152;29;20126;-76
2021/05/25 12:27:25;;;;;;;4.72;2.35;;;;;;;30.84;71.05;101330.84;4920859;29;20126;-75
2021/05/25 12:30:15;;;;;;;4.20;2.00;;;;;;;31.09;70.94;101322.13;4919772;29;20024;-74
2021/05/25 12:33:01;;;;;;;5.80;2.20;;;;;;;30.79;72.04;101329.53;4919746;29;20028;-75
2021/05/25 12:35:47;;;;;;;7.95;2.17;;;;;;;30.55;74.02;101318.22;4919457;29;20024;-75
2021/05/25 12:38:33;;;;;;;4.55;2.25;;;;;;;30.78;73.20;101317.00;4920163;29;20071;-76
2021/05/25 12:41:19;;;;;;;3.58;2.17;;;;;;;30.75;70.90;101317.28;4906555;29;20120;-75
2021/05/25 12:44:10;;;;;;;7.53;2.42;;;;;;;30.07;74.03;101306.38;4919549;29;20441;-75
2021/05/25 12:47:03;;;;;;;4.20;2.10;;;;;;;29.96;74.41;101304.66;4919304;29;20103;-75
2021/05/25 12:49:51;;;;;;;2.78;1.90;;;;;;;29.67;75.93;101300.09;4920153;29;20035;-74
2021/05/25 12:52:37;;;;;;;2.88;2.10;;;;;;;30.45;73.65;101295.69;4919356;29;20047;-74
2021/05/25 12:55:23;;;;;;;3.35;2.00;;;;;;;30.40;74.32;101303.38;4905928;29;20043;-74
2021/05/25 12:58:09;;;;;;;7.57;2.53;;;;;;;31.02;71.87;101293.91;4919936;29;20024;-75
2021/05/25 13:00:55;;;;;;;7.05;2.60;;;;;;;30.40;72.19;101309.66;4906349;29;20031;-74
2021/05/25 13:03:40;;;;;;;4.80;2.30;;;;;;;29.91;71.80;101290.69;4918203;29;20024;-74
2021/05/25 13:06:35;;;;;;;4.50;2.13;;;;;;;30.04;72.73;101288.59;4918652;29;20099;-74
2021/05/25 13:09:27;;;;;;;6.20;2.28;;;;;;;30.21;71.41;101287.97;4906618;29;20078;-75
2021/05/25 13:12:14;;;;;;;3.72;2.00;;;;;;;30.51;68.47;101290.59;4918807;29;20063;-75
2021/05/25 13:15:03;;;;;;;5.13;2.50;;;;;;;30.46;68.01;101281.19;4906518;29;20143;-76
2021/05/25 13:17:55;;;;;;;4.32;2.20;;;;;;;30.07;68.86;101274.81;4919488;29;20032;-75
2021/05/25 13:20:45;;;;;;;4.65;1.67;;;;;;;30.06;66.43;101267.69;4906666;29;20039;-75
2021/05/25 13:23:33;;;;;;;6.40;2.00;;;;;;;29.59;67.30;101257.56;4918604;29;20042;-75
2021/05/25 13:26:30;;;;;;;5.80;2.10;;;;;;;30.73;65.60;101247.06;4906193;29;20066;-75
2021/05/25 13:29:21;;;;;;;9.32;2.28;;;;;;;30.50;63.09;101259.13;4918702;29;20032;-75
2021/05/25 13:32:06;;;;;;;4.78;2.10;;;;;;;30.72;62.48;101256.19;4918633;29;20027;-75
2021/05/25 13:34:52;;;;;;;5.78;2.08;;;;;;;31.38;61.10;101245.44;4905538;29;20048;-75
2021/05/25 13:37:39;;;;;;;5.55;2.00;;;;;;;30.74;62.38;101229.81;4905995;29;20043;-74
2021/05/25 13:40:25;;;;;;;8.48;2.88;;;;;;;31.34;63.65;101223.22;4918772;29;20517;-75
2021/05/25 13:43:11;;;;;;;6.47;2.20;;;;;;;30.57;63.81;101213.41;4918328;29;20467;-75